Effective Sunday, March 17, 2024, the National Weather Service National Data Buoy Center will discontinue its Dial-A-Buoy Interactive Voice Response system. For more information, see Service Change Notice 24-06 (PDF).

Station NJLC1 - 9418768 - North Jetty Landing, CA Image indicating link to RSS feed of recent meteorological observations for station NJLC1


Conditions at NJLC1 as of
(10:54 am PST)
1854 GMT on 02/23/2024:
     

Click on the graph icon in the table below to see a time series plot of the last five days of that observation.

5-day plot - Wind Direction Wind Direction (WDIR): N ( 10 deg true )
5-day plot - Wind Speed Wind Speed (WSPD): 5.1 kts
5-day plot - Wind Gust Wind Gust (GST): 6.0 kts
5-day plot - Air Temperature Air Temperature (ATMP): 50.9 °F
5-day plot - Wind Chill Wind Chill (CHILL): 48.9 °F
5-day plot - Wind Speed at 10 Meters Wind Speed at 10 meters (WSPD10M): 5.8 kts
5-day plot - Wind Speed at 20 Meters Wind Speed at 20 meters (WSPD20M): 5.8 kts
5-day plot -  Wind Speed, Wind Gust and Atmospheric Pressure Combined plot of Wind Speed, Gust, and Air Pressure
NOS Water Level Observation Network Water Level
Previous observations
TIME
(PST)
5-day plot - Wind Direction
WDIR
 
5-day plot - Wind Speed
WSPD
kts
5-day plot - Wind Gust
GST
kts
5-day plot - Wave Height
WVHT
ft
5-day plot - Dominant Wave Period
DPD
sec
5-day plot - Average Wave Period
APD
sec
5-day plot - Mean Wave Direction
MWD
 
5-day plot - Atmospheric Pressure
PRES
in
5-day plot - Pressure Tendency
PTDY
in
5-day plot - Air Temperature
ATMP
°F
5-day plot - Water Temperature
WTMP
°F
5-day plot - Dew Point
DEWP
°F
5-day plot - Salinity
SAL
psu
5-day plot - Visibility
VIS
nmi
5-day plot - Tide (above MLLW)
TIDE
ft
2024-02-23 10:48 am N 5.1 6.0------ 50.7-----
2024-02-23 10:42 am N 5.1 5.1------ 50.7-----
2024-02-23 10:36 am N 5.1 5.1------ 50.5-----
2024-02-23 10:30 am N 4.1 5.1------ 50.7-----
2024-02-23 10:24 amNNW 2.9 4.1------ 51.1-----
2024-02-23 10:18 am NW 2.9 4.1------ 52.2-----
2024-02-23 10:12 amWNW 2.9 4.1------ 53.2-----
2024-02-23 10:06 am W 2.9 4.1------ 51.6-----
2024-02-23 10:00 amWSW 2.9 4.1------ 51.8-----
2024-02-23 09:54 am SW 4.1 5.1------ 52.7-----
2024-02-23 09:48 amSSW 5.1 5.1------------
2024-02-23 09:42 amSSW 5.1 6.0------ 51.1-----
2024-02-23 09:36 am S 5.1 5.1------ 51.1-----
2024-02-23 09:30 amSSW 2.9 4.1------ 50.7-----
2024-02-23 09:24 amSSW 2.9 4.1------ 50.5-----
2024-02-23 09:18 am SW 1.9 2.9------------
2024-02-23 09:12 amSSW 1.9 2.9------ 50.5-----
2024-02-23 09:06 amSSW 1.9 2.9------ 49.8-----
2024-02-23 09:00 am S 1.9 2.9------ 49.6-----
2024-02-23 08:54 amSSE 1.9 2.9------ 49.3-----
2024-02-23 08:48 amSSE 2.9 4.1------ 49.1-----
2024-02-23 08:42 amSSE 2.9 4.1------ 48.7-----
2024-02-23 08:36 amSSE 2.9 4.1------ 48.7-----
2024-02-23 08:30 amSSE 2.9 2.9------ 48.7-----
2024-02-23 08:24 am SE 2.9 4.1------ 48.9-----
2024-02-23 08:18 amSSE 2.9 4.1------ 48.4-----
2024-02-23 08:12 am S 4.1 5.1------ 48.0-----
2024-02-23 08:06 am S 4.1 5.1------ 48.0-----
2024-02-23 08:00 am S 5.1 6.0------ 48.4-----
2024-02-23 07:54 am SE 2.9 4.1------ 47.8-----
2024-02-23 07:48 amESE 4.1 5.1------ 46.9-----
2024-02-23 07:42 amESE 5.1 6.0------ 46.4-----
2024-02-23 07:36 amESE 5.1 6.0------ 46.4-----
2024-02-23 07:30 am E 6.0 7.0------ 45.5-----
2024-02-23 07:24 amESE 7.0 8.0------ 45.0-----
2024-02-23 07:18 amESE 6.0 8.0------ 44.4-----
2024-02-23 07:12 amESE 6.0 7.0------ 44.6-----
2024-02-23 07:06 am E 6.0 7.0------ 45.1-----
2024-02-23 07:00 am E 6.0 8.0------ 45.3-----
2024-02-23 06:54 am E 6.0 7.0------ 45.5-----
2024-02-23 06:48 am E 7.0 8.0------------
2024-02-23 06:42 amESE 7.0 8.0------ 46.0-----
2024-02-23 06:36 amESE 6.0 7.0------ 45.9-----
2024-02-23 06:30 amESE 6.0 8.0------ 45.9-----
2024-02-23 06:24 amESE 6.0 9.9------ 45.3-----
2024-02-23 06:18 amESE 8.0 9.9------------
2024-02-23 06:12 amESE 7.0 8.9------ 45.3-----
2024-02-23 06:06 am E 6.0 8.0------ 45.3-----
2024-02-23 06:00 am E 5.1 6.0------ 45.9-----
2024-02-23 05:54 amESE 5.1 5.1------ 46.9-----
2024-02-23 05:48 amESE 4.1 4.1------------
2024-02-23 05:42 amSSE 1.9 2.9------ 48.6-----
2024-02-23 05:36 am S 1.9 2.9------ 48.6-----
2024-02-23 05:30 am S 2.9 4.1------ 48.7-----
2024-02-23 05:24 am S 4.1 4.1------ 48.7-----
2024-02-23 05:18 amSSW 2.9 4.1------ 49.3-----
2024-02-23 05:12 am S 1.0 1.9------ 49.1-----
2024-02-23 05:06 am- 0.0 1.0------ 49.1-----
2024-02-23 05:00 am- 0.0 1.9------ 48.7-----
2024-02-23 04:54 amESE 1.9 2.9------ 48.4-----
2024-02-23 04:48 amESE 1.9 4.1------ 48.7-----
2024-02-23 04:42 am SE 2.9 2.9------ 48.7-----
2024-02-23 04:36 am SE 1.9 2.9------ 48.6-----
2024-02-23 04:30 amESE 1.0 2.9------ 48.9-----
2024-02-23 04:24 am SE 1.9 4.1------ 48.9-----
2024-02-23 04:18 am SE 2.9 4.1------ 48.7-----
2024-02-23 04:12 amESE 4.1 6.0------ 48.9-----
2024-02-23 04:06 am S 6.0 6.0------ 49.5-----
2024-02-23 04:00 amSSE 5.1 5.1------ 49.5-----
2024-02-23 03:54 am S 5.1 5.1------ 49.3-----
2024-02-23 03:48 amSSE 4.1 5.1------ 49.3-----
2024-02-23 03:42 amSSE 4.1 4.1------ 49.8-----
2024-02-23 03:36 am S 4.1 4.1------ 50.0-----
2024-02-23 03:30 amSSE 4.1 5.1------ 49.8-----
2024-02-23 03:24 amSSE 5.1 7.0------ 49.6-----
2024-02-23 03:18 am SE 5.1 7.0------------
2024-02-23 03:12 am SE 4.1 5.1------ 49.1-----
2024-02-23 03:06 am SE 4.1 5.1------ 49.3-----
2024-02-23 03:00 amESE 4.1 5.1------ 48.7-----
2024-02-23 02:54 am SE 5.1 6.0------ 48.6-----
2024-02-23 02:48 am SE 4.1 5.1------------
2024-02-23 02:42 am SE 4.1 5.1------ 48.2-----
2024-02-23 02:36 amESE 5.1 5.1------ 48.0-----
2024-02-23 02:30 amESE 5.1 6.0------ 48.4-----
2024-02-23 02:24 amESE 5.1 5.1------ 48.7-----
2024-02-23 02:18 amESE 4.1 5.1------------
2024-02-23 02:12 amESE 5.1 5.1------ 48.6-----
2024-02-23 02:06 amESE 5.1 6.0------ 48.7-----
2024-02-23 02:00 amESE 5.1 5.1------ 48.6-----
2024-02-23 01:54 amESE 4.1 5.1------ 48.9-----
2024-02-23 01:48 am E 5.1 6.0------ 49.1-----
2024-02-23 01:42 amESE 5.1 6.0------ 48.9-----
2024-02-23 01:36 amESE 4.1 5.1------ 49.1-----
2024-02-23 01:30 am SE 2.9 4.1------ 49.3-----
2024-02-23 01:24 am E 2.9 5.1------ 49.6-----
2024-02-23 01:18 am E 4.1 5.1------ 50.0-----
2024-02-23 01:12 am E 5.1 5.1------ 49.8-----
2024-02-23 01:06 am E 4.1 5.1------ 50.0-----
2024-02-23 01:00 am E 4.1 4.1------ 50.0-----
2024-02-23 12:54 amESE 2.9 4.1------ 49.6-----
2024-02-23 12:48 amSSE 2.9 2.9------------
2024-02-23 12:42 am S 1.9 1.9------ 49.6-----
2024-02-23 12:36 amESE 1.9 1.9------ 50.0-----
2024-02-23 12:30 am SE 1.0 4.1------ 50.2-----
2024-02-23 12:24 amENE 4.1 4.1------ 50.2-----
2024-02-23 12:18 am E 2.9 5.1------ 50.4-----
2024-02-23 12:12 am E 4.1 4.1------ 50.4-----
2024-02-23 12:06 am E 4.1 5.1------ 50.2-----
2024-02-23 12:00 amENE 4.1 5.1------ 50.4-----
2024-02-22 11:54 pm E 2.9 5.1------ 50.4-----
2024-02-22 11:48 pm E 4.1 5.1------ 50.4-----
2024-02-22 11:42 pmESE 4.1 4.1------ 50.9-----
2024-02-22 11:36 pmESE 2.9 4.1------ 51.3-----
2024-02-22 11:30 pm E 2.9 4.1------ 52.0-----
2024-02-22 11:24 pmSSE 2.9 4.1------ 52.2-----
2024-02-22 11:18 pm S 2.9 5.1------ 52.2-----
2024-02-22 11:12 pmSSW 5.1 6.0------ 52.3-----
2024-02-22 11:06 pmSSW 4.1 6.0------ 52.7-----
2024-02-22 11:00 pm SW 5.1 5.1------ 52.9-----
2024-02-22 10:54 pm S 4.1 5.1------ 53.1-----
2024-02-22 10:48 pmSSE 5.1 6.0------------
2024-02-22 10:42 pmSSE 5.1 6.0------ 53.4-----
2024-02-22 10:36 pm S 5.1 7.0------ 53.4-----
2024-02-22 10:30 pm S 5.1 6.0------ 53.1-----
2024-02-22 10:24 pm S 4.1 5.1------ 52.9-----
2024-02-22 10:18 pmSSW 5.1 7.0------------
2024-02-22 10:12 pm S 5.1 6.0------ 52.7-----
2024-02-22 10:06 pm S 2.9 4.1------ 52.5-----
2024-02-22 10:00 pmSSE 2.9 5.1------ 52.3-----
2024-02-22 09:54 pm SE 5.1 5.1------ 52.3-----
2024-02-22 09:48 pmESE 4.1 5.1------ 52.7-----
2024-02-22 09:42 pmESE 4.1 5.1------ 52.2-----
2024-02-22 09:36 pm E 4.1 4.1------ 52.0-----
2024-02-22 09:30 pmESE 4.1 4.1------ 52.2-----
2024-02-22 09:24 pmESE 4.1 4.1------ 52.5-----
2024-02-22 09:18 pm SE 2.9 4.1------ 52.5-----
2024-02-22 09:12 pmSSE 2.9 4.1------ 52.3-----
2024-02-22 09:06 pmESE 1.9 4.1------ 52.5-----
2024-02-22 09:00 pmESE 2.9 4.1------ 52.7-----
2024-02-22 08:54 pm E 2.9 5.1------ 53.1-----
2024-02-22 08:48 pmENE 5.1 6.0------------
2024-02-22 08:42 pmENE 4.1 5.1------ 53.2-----
2024-02-22 08:36 pmENE 5.1 6.0------ 53.2-----
2024-02-22 08:30 pmENE 5.1 6.0------ 53.2-----
2024-02-22 08:24 pmENE 5.1 7.0------ 53.2-----
2024-02-22 08:18 pmENE 6.0 8.0------------
2024-02-22 08:12 pmENE 6.0 8.0------ 53.1-----
2024-02-22 08:06 pmENE 7.0 8.9------ 53.1-----
2024-02-22 08:00 pmENE 8.0 9.9------ 53.1-----
2024-02-22 07:54 pmENE 8.9 11.1------ 52.9-----
2024-02-22 07:48 pmENE 11.1 12.0------------
2024-02-22 07:42 pmENE 8.0 11.1------ 52.9-----
2024-02-22 07:36 pmENE 8.9 9.9------ 52.7-----
2024-02-22 07:30 pmENE 7.0 8.0------ 52.5-----
2024-02-22 07:24 pmENE 7.0 8.0------ 52.7-----
2024-02-22 07:18 pmENE 5.1 6.0------------
2024-02-22 07:12 pmENE 6.0 7.0------ 52.9-----
2024-02-22 07:06 pmENE 5.1 6.0------ 53.1-----
2024-02-22 07:00 pmENE 4.1 5.1------ 53.2-----
2024-02-22 06:54 pmENE 5.1 5.1------ 53.6-----
2024-02-22 06:48 pmENE 4.1 5.1------ 53.8-----
2024-02-22 06:42 pmENE 5.1 6.0------ 54.0-----
2024-02-22 06:36 pm NE 6.0 7.0------ 54.0-----
2024-02-22 06:30 pm NE 6.0 6.0------ 54.1-----
2024-02-22 06:24 pm NE 4.1 5.1------ 54.1-----
2024-02-22 06:18 pmENE 4.1 5.1------ 54.5-----
2024-02-22 06:12 pmENE 4.1 5.1------ 54.7-----
2024-02-22 06:06 pm NE 4.1 4.1------ 54.7-----
2024-02-22 06:00 pm NE 4.1 5.1------ 54.9-----
2024-02-22 05:54 pm E 2.9 4.1------ 54.9-----
2024-02-22 05:48 pm S 2.9 5.1------ 54.9-----
2024-02-22 05:42 pm S 5.1 7.0------ 55.0-----
2024-02-22 05:36 pm S 6.0 8.0------ 54.9-----
2024-02-22 05:24 pm S 7.0 11.1------ 55.0-----
2024-02-22 05:18 pm S 8.9 11.1------ 54.5-----
2024-02-22 05:12 pmSSE 8.0 17.1------ 54.5-----
2024-02-22 05:06 pm SW 14.0 17.1------ 54.3-----
2024-02-22 05:00 pm SW 14.0 18.1------ 54.1-----
2024-02-22 04:54 pm SW 15.0 21.0------ 54.1-----
2024-02-22 04:48 pm SW 15.0 21.0------------
2024-02-22 04:42 pm SW 15.0 21.0------ 54.1-----
2024-02-22 04:36 pm SW 15.0 21.0------ 54.1-----
2024-02-22 04:30 pm SW 15.9 22.0------ 54.1-----
2024-02-22 04:24 pm SW 15.9 22.0------ 54.1-----
2024-02-22 04:18 pm SW 18.1 21.0------------
2024-02-22 04:12 pm SW 15.9 20.0------ 54.1-----
2024-02-22 04:06 pm SW 15.9 20.0------ 54.3-----
2024-02-22 04:00 pm SW 15.0 21.0------ 54.3-----
2024-02-22 03:54 pm SW 14.0 22.0------ 54.3-----
2024-02-22 03:48 pm SW 15.9 22.0------------
2024-02-22 03:42 pm SW 15.9 21.0------ 54.5-----
2024-02-22 03:36 pm SW 15.0 22.0------ 54.5-----
2024-02-22 03:30 pm SW 17.1 22.9------------
2024-02-22 03:24 pm SW 15.0 19.0------------
2024-02-22 03:18 pmWSW 14.0 17.1------ 55.0-----
2024-02-22 03:06 pmWSW 12.0 15.0------ 55.2-----
2024-02-22 03:00 pmWSW 12.0 20.0------------
2024-02-22 02:54 pmWSW 14.0 18.1------------
2024-02-22 02:48 pmWSW 12.0 15.0------ 55.2-----
2024-02-22 02:42 pmWSW 12.0 14.0------ 55.2-----
2024-02-22 02:36 pmWSW 9.9 14.0------ 55.0-----
2024-02-22 02:30 pm SW 9.9 14.0------ 55.0-----
2024-02-22 02:24 pmWSW 11.1 13.0------ 55.4-----
2024-02-22 02:18 pm SW 12.0 15.9------ 55.4-----
2024-02-22 02:12 pm SW 12.0 15.9------ 55.2-----
2024-02-22 02:06 pmWSW 11.1 15.0------ 55.2-----
2024-02-22 02:00 pm SW 11.1 15.9------ 55.4-----
2024-02-22 01:54 pmWSW 11.1 15.9------ 55.6-----
2024-02-22 01:48 pm SW 9.9 14.0------ 55.9-----
2024-02-22 01:42 pmWSW 11.1 15.0------ 55.9-----
2024-02-22 01:36 pmWSW 12.0 17.1------ 55.8-----
2024-02-22 01:30 pm W 15.0 17.1------ 55.2-----
2024-02-22 01:24 pm W 7.0 9.9------ 55.6-----
2024-02-22 01:18 pm SW 7.0 13.0------------
2024-02-22 01:12 pmSSE 11.1 14.0------ 58.8-----
2024-02-22 01:06 pm S 13.0 15.9------ 58.6-----
2024-02-22 01:00 pm S 13.0 17.1------ 58.5-----
2024-02-22 12:54 pm S 14.0 18.1------ 58.3-----
2024-02-22 12:48 pm S 17.1 18.1------------
2024-02-22 12:42 pm S 17.1 18.1------ 58.1-----
2024-02-22 12:36 pm S 12.0 15.9------ 57.9-----
2024-02-22 12:30 pmSSE 14.0 17.1------ 57.9-----
2024-02-22 12:24 pmSSE 15.9 19.0------ 57.7-----
2024-02-22 12:18 pm S 17.1 19.0------------
2024-02-22 12:12 pmSSE 14.0 18.1------ 57.6-----
2024-02-22 12:06 pm S 15.0 18.1------ 57.7-----
2024-02-22 12:00 pm S 15.0 17.1------ 57.7-----
2024-02-22 11:54 am S 15.0 17.1------ 57.4-----
2024-02-22 11:48 am S 15.0 17.1------ 57.4-----
2024-02-22 11:42 am S 15.0 17.1------ 57.2-----
2024-02-22 11:36 am S 14.0 17.1------ 57.0-----
2024-02-22 11:30 am S 14.0 18.1------ 56.8-----
2024-02-22 11:24 am S 15.0 17.1------ 56.8-----
2024-02-22 11:18 am S 12.0 17.1------ 56.5-----
2024-02-22 11:12 am S 15.0 19.0------ 56.5-----
2024-02-22 11:06 am S 15.9 19.0------ 56.5-----
2024-02-22 11:00 am S 13.0 17.1------ 56.3-----
2024-02-22 10:54 am S 13.0 15.9------ 56.1-----